Barcelona, Spain
Current Conditions -  °F | °C
As of 6:30 AM on Friday 28 Nov 2014 (Local Time) from LEBL Reporting Station
Scattered Clouds Scattered Clouds  
Wind Chill: 17°   Ceiling: Unl
Heat Index: 17°   Visibility: 6mi
Dew Point: 14°   Wind: 7mph
Humidity: 82%   Direction: 180°S
Pressure: 29.38"   Gusts: NA
Location:  41.39°N, 2.17°E
Report Text: LEBL 280530Z 18006KT 9000 SCT015 17/14 Q0995 NOSIG
Loading
Personal Weather Stations






























Interactive Weather Map New forecast layout! Learn more

10-Day Weather Forecast

Advertisements
Track Severe Weather on mobile